sensor_id;sensor_type;location;lat;lon;timestamp;P1;durP1;ratioP1;P2;durP2;ratioP2
751;SDS011;360;48.764;9.164;2022-11-20T00:00:17;5.50;;;3.83;;
751;SDS011;360;48.764;9.164;2022-11-20T00:02:45;2.87;;;2.13;;
751;SDS011;360;48.764;9.164;2022-11-20T00:05:12;2.20;;;2.00;;
751;SDS011;360;48.764;9.164;2022-11-20T00:07:39;5.10;;;2.43;;
751;SDS011;360;48.764;9.164;2022-11-20T00:10:06;5.20;;;2.50;;
751;SDS011;360;48.764;9.164;2022-11-20T00:12:33;2.70;;;2.13;;
751;SDS011;360;48.764;9.164;2022-11-20T00:15:00;4.03;;;2.70;;
751;SDS011;360;48.764;9.164;2022-11-20T00:17:27;5.50;;;2.50;;
751;SDS011;360;48.764;9.164;2022-11-20T00:19:55;2.80;;;2.13;;
751;SDS011;360;48.764;9.164;2022-11-20T00:22:22;4.73;;;2.60;;
751;SDS011;360;48.764;9.164;2022-11-20T00:24:49;3.30;;;2.40;;
751;SDS011;360;48.764;9.164;2022-11-20T00:27:15;3.33;;;2.67;;
751;SDS011;360;48.764;9.164;2022-11-20T00:29:42;5.30;;;3.30;;
751;SDS011;360;48.764;9.164;2022-11-20T00:32:09;3.13;;;2.20;;
751;SDS011;360;48.764;9.164;2022-11-20T00:34:36;3.00;;;1.80;;
751;SDS011;360;48.764;9.164;2022-11-20T00:37:04;2.70;;;2.20;;
751;SDS011;360;48.764;9.164;2022-11-20T00:39:31;2.77;;;2.10;;
751;SDS011;360;48.764;9.164;2022-11-20T00:41:57;1.77;;;1.10;;
751;SDS011;360;48.764;9.164;2022-11-20T00:44:24;2.97;;;1.90;;
751;SDS011;360;48.764;9.164;2022-11-20T00:46:51;2.60;;;1.90;;
751;SDS011;360;48.764;9.164;2022-11-20T00:49:18;2.53;;;2.03;;
751;SDS011;360;48.764;9.164;2022-11-20T00:51:44;5.03;;;2.93;;
751;SDS011;360;48.764;9.164;2022-11-20T00:54:13;3.80;;;2.10;;
751;SDS011;360;48.764;9.164;2022-11-20T00:56:39;2.60;;;1.80;;
751;SDS011;360;48.764;9.164;2022-11-20T00:59:08;2.03;;;1.73;;
751;SDS011;360;48.764;9.164;2022-11-20T01:01:36;2.00;;;1.70;;
751;SDS011;360;48.764;9.164;2022-11-20T01:04:03;2.30;;;1.70;;
751;SDS011;360;48.764;9.164;2022-11-20T01:06:31;2.53;;;1.50;;
751;SDS011;360;48.764;9.164;2022-11-20T01:08:59;2.10;;;1.50;;
751;SDS011;360;48.764;9.164;2022-11-20T01:11:29;2.27;;;1.60;;
751;SDS011;360;48.764;9.164;2022-11-20T01:13:57;4.80;;;2.70;;
751;SDS011;360;48.764;9.164;2022-11-20T01:16:26;2.03;;;1.43;;
751;SDS011;360;48.764;9.164;2022-11-20T01:18:55;3.50;;;1.60;;
751;SDS011;360;48.764;9.164;2022-11-20T01:21:24;3.10;;;2.40;;
751;SDS011;360;48.764;9.164;2022-11-20T01:23:52;3.33;;;1.67;;
751;SDS011;360;48.764;9.164;2022-11-20T01:26:20;2.43;;;1.23;;
751;SDS011;360;48.764;9.164;2022-11-20T01:28:50;2.07;;;1.53;;
751;SDS011;360;48.764;9.164;2022-11-20T01:31:18;2.60;;;1.63;;
751;SDS011;360;48.764;9.164;2022-11-20T01:33:48;2.30;;;1.67;;
751;SDS011;360;48.764;9.164;2022-11-20T01:36:19;4.67;;;3.60;;
751;SDS011;360;48.764;9.164;2022-11-20T01:38:47;3.00;;;1.60;;
751;SDS011;360;48.764;9.164;2022-11-20T01:41:14;2.60;;;1.53;;
751;SDS011;360;48.764;9.164;2022-11-20T01:43:57;1.83;;;1.20;;
751;SDS011;360;48.764;9.164;2022-11-20T01:46:24;5.73;;;1.57;;
751;SDS011;360;48.764;9.164;2022-11-20T01:48:51;5.57;;;1.50;;
751;SDS011;360;48.764;9.164;2022-11-20T01:51:24;2.87;;;1.37;;
751;SDS011;360;48.764;9.164;2022-11-20T01:53:55;3.00;;;1.87;;
751;SDS011;360;48.764;9.164;2022-11-20T01:56:25;3.60;;;2.37;;
751;SDS011;360;48.764;9.164;2022-11-20T01:58:55;3.50;;;2.10;;
751;SDS011;360;48.764;9.164;2022-11-20T02:01:25;3.03;;;1.83;;
751;SDS011;360;48.764;9.164;2022-11-20T02:03:52;2.37;;;1.53;;
751;SDS011;360;48.764;9.164;2022-11-20T02:06:22;3.47;;;1.87;;
751;SDS011;360;48.764;9.164;2022-11-20T02:08:51;1.47;;;1.10;;
751;SDS011;360;48.764;9.164;2022-11-20T02:11:19;1.60;;;1.30;;
751;SDS011;360;48.764;9.164;2022-11-20T02:13:45;1.87;;;1.43;;
751;SDS011;360;48.764;9.164;2022-11-20T02:16:14;2.50;;;2.00;;
751;SDS011;360;48.764;9.164;2022-11-20T02:18:44;3.30;;;1.43;;
751;SDS011;360;48.764;9.164;2022-11-20T02:21:24;4.30;;;1.30;;
751;SDS011;360;48.764;9.164;2022-11-20T02:24:01;2.40;;;1.43;;
751;SDS011;360;48.764;9.164;2022-11-20T02:26:31;2.10;;;1.60;;
751;SDS011;360;48.764;9.164;2022-11-20T02:29:03;4.70;;;1.60;;
751;SDS011;360;48.764;9.164;2022-11-20T02:31:33;2.10;;;1.20;;
751;SDS011;360;48.764;9.164;2022-11-20T02:34:03;2.53;;;2.07;;
751;SDS011;360;48.764;9.164;2022-11-20T02:36:30;1.57;;;1.47;;
751;SDS011;360;48.764;9.164;2022-11-20T02:38:58;2.40;;;1.60;;
751;SDS011;360;48.764;9.164;2022-11-20T02:41:30;4.33;;;2.13;;
751;SDS011;360;48.764;9.164;2022-11-20T02:43:57;2.20;;;1.50;;
751;SDS011;360;48.764;9.164;2022-11-20T02:46:24;3.53;;;1.20;;
751;SDS011;360;48.764;9.164;2022-11-20T02:48:51;3.50;;;2.00;;
751;SDS011;360;48.764;9.164;2022-11-20T02:51:18;2.10;;;1.80;;
751;SDS011;360;48.764;9.164;2022-11-20T02:53:45;1.47;;;1.13;;
751;SDS011;360;48.764;9.164;2022-11-20T02:56:14;1.23;;;1.03;;
751;SDS011;360;48.764;9.164;2022-11-20T02:58:41;1.40;;;1.13;;
751;SDS011;360;48.764;9.164;2022-11-20T03:01:08;2.93;;;1.33;;
751;SDS011;360;48.764;9.164;2022-11-20T03:03:35;1.60;;;1.47;;
751;SDS011;360;48.764;9.164;2022-11-20T03:06:03;2.57;;;1.57;;
751;SDS011;360;48.764;9.164;2022-11-20T03:08:30;2.80;;;1.43;;
751;SDS011;360;48.764;9.164;2022-11-20T03:11:01;0.97;;;0.80;;
751;SDS011;360;48.764;9.164;2022-11-20T03:13:30;1.93;;;1.43;;
751;SDS011;360;48.764;9.164;2022-11-20T03:15:57;2.27;;;2.07;;
751;SDS011;360;48.764;9.164;2022-11-20T03:18:24;2.77;;;1.60;;
751;SDS011;360;48.764;9.164;2022-11-20T03:20:56;5.10;;;1.67;;
751;SDS011;360;48.764;9.164;2022-11-20T03:23:28;1.87;;;1.20;;
751;SDS011;360;48.764;9.164;2022-11-20T03:25:55;2.10;;;1.43;;
751;SDS011;360;48.764;9.164;2022-11-20T03:28:22;2.80;;;1.80;;
751;SDS011;360;48.764;9.164;2022-11-20T03:30:51;1.83;;;1.27;;
751;SDS011;360;48.764;9.164;2022-11-20T03:33:18;2.90;;;1.90;;
751;SDS011;360;48.764;9.164;2022-11-20T03:35:45;2.53;;;1.40;;
751;SDS011;360;48.764;9.164;2022-11-20T03:38:12;1.77;;;1.40;;
751;SDS011;360;48.764;9.164;2022-11-20T03:40:39;2.80;;;1.60;;
751;SDS011;360;48.764;9.164;2022-11-20T03:43:06;1.97;;;1.63;;
751;SDS011;360;48.764;9.164;2022-11-20T03:45:33;3.63;;;2.50;;
751;SDS011;360;48.764;9.164;2022-11-20T03:48:02;2.07;;;1.60;;
751;SDS011;360;48.764;9.164;2022-11-20T03:50:29;7.47;;;1.97;;
751;SDS011;360;48.764;9.164;2022-11-20T03:52:56;1.93;;;1.70;;
751;SDS011;360;48.764;9.164;2022-11-20T03:55:23;3.53;;;2.30;;
751;SDS011;360;48.764;9.164;2022-11-20T03:57:50;2.60;;;1.67;;
751;SDS011;360;48.764;9.164;2022-11-20T04:00:18;3.07;;;1.73;;
751;SDS011;360;48.764;9.164;2022-11-20T04:02:45;2.07;;;1.87;;
751;SDS011;360;48.764;9.164;2022-11-20T04:05:13;3.37;;;2.03;;
751;SDS011;360;48.764;9.164;2022-11-20T04:07:40;2.63;;;1.87;;
751;SDS011;360;48.764;9.164;2022-11-20T04:10:08;2.23;;;1.80;;
751;SDS011;360;48.764;9.164;2022-11-20T04:12:35;2.83;;;1.60;;
751;SDS011;360;48.764;9.164;2022-11-20T04:15:02;2.30;;;2.10;;
751;SDS011;360;48.764;9.164;2022-11-20T04:17:29;2.90;;;1.70;;
751;SDS011;360;48.764;9.164;2022-11-20T04:19:56;2.70;;;1.47;;
751;SDS011;360;48.764;9.164;2022-11-20T04:22:25;2.40;;;1.40;;
751;SDS011;360;48.764;9.164;2022-11-20T04:24:52;3.97;;;1.73;;
751;SDS011;360;48.764;9.164;2022-11-20T04:27:19;3.33;;;1.53;;
751;SDS011;360;48.764;9.164;2022-11-20T04:29:46;1.97;;;1.67;;
751;SDS011;360;48.764;9.164;2022-11-20T04:32:13;2.83;;;1.70;;
751;SDS011;360;48.764;9.164;2022-11-20T04:34:40;4.43;;;1.33;;
751;SDS011;360;48.764;9.164;2022-11-20T04:37:07;3.47;;;2.00;;
751;SDS011;360;48.764;9.164;2022-11-20T04:39:36;3.00;;;1.40;;
751;SDS011;360;48.764;9.164;2022-11-20T04:42:03;2.87;;;2.43;;
751;SDS011;360;48.764;9.164;2022-11-20T04:44:44;2.80;;;2.13;;
751;SDS011;360;48.764;9.164;2022-11-20T04:47:11;2.80;;;1.67;;
751;SDS011;360;48.764;9.164;2022-11-20T04:49:38;8.57;;;2.17;;
751;SDS011;360;48.764;9.164;2022-11-20T04:52:05;1.53;;;1.37;;
751;SDS011;360;48.764;9.164;2022-11-20T04:54:32;3.63;;;2.27;;
751;SDS011;360;48.764;9.164;2022-11-20T04:57:01;5.77;;;1.90;;
751;SDS011;360;48.764;9.164;2022-11-20T04:59:28;2.53;;;1.43;;
751;SDS011;360;48.764;9.164;2022-11-20T05:01:55;2.17;;;1.30;;
751;SDS011;360;48.764;9.164;2022-11-20T05:04:22;1.80;;;1.60;;
751;SDS011;360;48.764;9.164;2022-11-20T05:06:49;3.30;;;1.73;;
751;SDS011;360;48.764;9.164;2022-11-20T05:09:17;2.03;;;1.40;;
751;SDS011;360;48.764;9.164;2022-11-20T05:11:44;2.87;;;1.73;;
751;SDS011;360;48.764;9.164;2022-11-20T05:14:12;2.17;;;1.97;;
751;SDS011;360;48.764;9.164;2022-11-20T05:16:39;4.53;;;1.60;;
751;SDS011;360;48.764;9.164;2022-11-20T05:19:06;2.73;;;1.90;;
751;SDS011;360;48.764;9.164;2022-11-20T05:21:34;3.90;;;2.00;;
751;SDS011;360;48.764;9.164;2022-11-20T05:24:01;1.37;;;1.23;;
751;SDS011;360;48.764;9.164;2022-11-20T05:26:28;1.73;;;1.23;;
751;SDS011;360;48.764;9.164;2022-11-20T05:28:55;2.73;;;1.37;;
751;SDS011;360;48.764;9.164;2022-11-20T05:31:24;2.50;;;2.20;;
751;SDS011;360;48.764;9.164;2022-11-20T05:33:51;1.97;;;1.57;;
751;SDS011;360;48.764;9.164;2022-11-20T05:36:18;3.00;;;2.10;;
751;SDS011;360;48.764;9.164;2022-11-20T05:38:45;2.80;;;1.70;;
751;SDS011;360;48.764;9.164;2022-11-20T05:41:13;2.40;;;1.70;;
751;SDS011;360;48.764;9.164;2022-11-20T05:43:40;2.70;;;1.80;;
751;SDS011;360;48.764;9.164;2022-11-20T05:46:08;1.40;;;1.27;;
751;SDS011;360;48.764;9.164;2022-11-20T05:48:37;2.43;;;1.50;;
751;SDS011;360;48.764;9.164;2022-11-20T05:51:05;2.57;;;2.10;;
751;SDS011;360;48.764;9.164;2022-11-20T05:53:33;2.33;;;2.10;;
751;SDS011;360;48.764;9.164;2022-11-20T05:56:01;3.60;;;1.57;;
751;SDS011;360;48.764;9.164;2022-11-20T05:58:29;2.80;;;1.20;;
751;SDS011;360;48.764;9.164;2022-11-20T06:01:02;3.40;;;1.87;;
751;SDS011;360;48.764;9.164;2022-11-20T06:03:29;2.17;;;1.60;;
751;SDS011;360;48.764;9.164;2022-11-20T06:05:59;2.23;;;1.70;;
751;SDS011;360;48.764;9.164;2022-11-20T06:08:27;2.30;;;1.53;;
751;SDS011;360;48.764;9.164;2022-11-20T06:10:54;1.60;;;1.43;;
751;SDS011;360;48.764;9.164;2022-11-20T06:13:21;1.73;;;1.50;;
751;SDS011;360;48.764;9.164;2022-11-20T06:15:48;2.23;;;1.93;;
751;SDS011;360;48.764;9.164;2022-11-20T06:18:15;1.80;;;1.40;;
751;SDS011;360;48.764;9.164;2022-11-20T06:20:43;2.30;;;1.73;;
751;SDS011;360;48.764;9.164;2022-11-20T06:23:11;1.30;;;1.17;;
751;SDS011;360;48.764;9.164;2022-11-20T06:25:38;3.27;;;1.30;;
751;SDS011;360;48.764;9.164;2022-11-20T06:28:05;1.80;;;1.40;;
751;SDS011;360;48.764;9.164;2022-11-20T06:30:33;1.83;;;1.00;;
751;SDS011;360;48.764;9.164;2022-11-20T06:33:00;1.93;;;1.13;;
751;SDS011;360;48.764;9.164;2022-11-20T06:35:27;3.03;;;1.63;;
751;SDS011;360;48.764;9.164;2022-11-20T06:37:55;1.63;;;1.30;;
751;SDS011;360;48.764;9.164;2022-11-20T06:40:24;1.93;;;1.30;;
751;SDS011;360;48.764;9.164;2022-11-20T06:42:52;2.00;;;1.60;;
751;SDS011;360;48.764;9.164;2022-11-20T06:45:20;3.90;;;1.50;;
751;SDS011;360;48.764;9.164;2022-11-20T06:47:47;2.30;;;1.20;;
751;SDS011;360;48.764;9.164;2022-11-20T06:50:14;2.17;;;1.70;;
751;SDS011;360;48.764;9.164;2022-11-20T06:52:41;6.23;;;1.50;;
751;SDS011;360;48.764;9.164;2022-11-20T06:55:08;1.23;;;1.00;;
751;SDS011;360;48.764;9.164;2022-11-20T06:57:36;3.63;;;1.80;;
751;SDS011;360;48.764;9.164;2022-11-20T07:00:04;2.03;;;1.20;;
751;SDS011;360;48.764;9.164;2022-11-20T07:02:31;1.40;;;1.03;;
751;SDS011;360;48.764;9.164;2022-11-20T07:04:58;1.43;;;1.13;;
751;SDS011;360;48.764;9.164;2022-11-20T07:07:25;2.10;;;1.20;;
751;SDS011;360;48.764;9.164;2022-11-20T07:09:52;1.20;;;0.90;;
751;SDS011;360;48.764;9.164;2022-11-20T07:12:20;1.90;;;1.03;;
751;SDS011;360;48.764;9.164;2022-11-20T07:14:48;2.63;;;1.37;;
751;SDS011;360;48.764;9.164;2022-11-20T07:17:15;1.70;;;1.23;;
751;SDS011;360;48.764;9.164;2022-11-20T07:19:42;2.00;;;1.53;;
751;SDS011;360;48.764;9.164;2022-11-20T07:22:09;2.60;;;1.40;;
751;SDS011;360;48.764;9.164;2022-11-20T07:24:36;1.43;;;1.00;;
751;SDS011;360;48.764;9.164;2022-11-20T07:27:04;1.53;;;1.10;;
751;SDS011;360;48.764;9.164;2022-11-20T07:29:31;1.57;;;1.13;;
751;SDS011;360;48.764;9.164;2022-11-20T07:31:59;1.70;;;0.87;;
751;SDS011;360;48.764;9.164;2022-11-20T07:34:26;2.03;;;1.20;;
751;SDS011;360;48.764;9.164;2022-11-20T07:36:53;1.97;;;1.40;;
751;SDS011;360;48.764;9.164;2022-11-20T07:39:21;2.20;;;1.20;;
751;SDS011;360;48.764;9.164;2022-11-20T07:41:48;1.57;;;1.13;;
751;SDS011;360;48.764;9.164;2022-11-20T07:44:15;1.20;;;0.93;;
751;SDS011;360;48.764;9.164;2022-11-20T07:46:42;4.90;;;1.33;;
751;SDS011;360;48.764;9.164;2022-11-20T07:49:10;1.27;;;1.10;;
751;SDS011;360;48.764;9.164;2022-11-20T07:51:37;2.20;;;1.33;;
751;SDS011;360;48.764;9.164;2022-11-20T07:54:05;2.97;;;2.00;;
751;SDS011;360;48.764;9.164;2022-11-20T07:56:32;1.53;;;1.20;;
751;SDS011;360;48.764;9.164;2022-11-20T07:58:59;2.13;;;1.20;;
751;SDS011;360;48.764;9.164;2022-11-20T08:01:26;2.17;;;1.30;;
751;SDS011;360;48.764;9.164;2022-11-20T08:03:53;1.53;;;0.70;;
751;SDS011;360;48.764;9.164;2022-11-20T08:06:22;2.27;;;1.17;;
751;SDS011;360;48.764;9.164;2022-11-20T08:08:49;1.10;;;0.80;;
751;SDS011;360;48.764;9.164;2022-11-20T08:11:16;2.60;;;0.93;;
751;SDS011;360;48.764;9.164;2022-11-20T08:14:01;0.97;;;0.80;;
751;SDS011;360;48.764;9.164;2022-11-20T08:16:37;1.53;;;1.00;;
751;SDS011;360;48.764;9.164;2022-11-20T08:19:04;1.73;;;1.20;;
751;SDS011;360;48.764;9.164;2022-11-20T08:21:33;3.70;;;1.07;;
751;SDS011;360;48.764;9.164;2022-11-20T08:24:00;1.67;;;0.83;;
751;SDS011;360;48.764;9.164;2022-11-20T08:26:27;1.57;;;0.70;;
751;SDS011;360;48.764;9.164;2022-11-20T08:28:55;4.20;;;1.33;;
751;SDS011;360;48.764;9.164;2022-11-20T08:31:22;1.40;;;1.00;;
751;SDS011;360;48.764;9.164;2022-11-20T08:33:50;10.67;;;1.53;;
751;SDS011;360;48.764;9.164;2022-11-20T08:36:17;1.63;;;0.97;;
751;SDS011;360;48.764;9.164;2022-11-20T08:38:47;2.50;;;1.67;;
751;SDS011;360;48.764;9.164;2022-11-20T08:41:15;1.33;;;1.00;;
751;SDS011;360;48.764;9.164;2022-11-20T08:43:52;1.17;;;1.07;;
751;SDS011;360;48.764;9.164;2022-11-20T08:46:19;1.27;;;0.80;;
751;SDS011;360;48.764;9.164;2022-11-20T08:48:46;3.97;;;1.77;;
751;SDS011;360;48.764;9.164;2022-11-20T08:51:14;1.73;;;1.40;;
751;SDS011;360;48.764;9.164;2022-11-20T08:53:41;1.60;;;0.90;;
751;SDS011;360;48.764;9.164;2022-11-20T08:56:10;1.40;;;1.03;;
751;SDS011;360;48.764;9.164;2022-11-20T08:58:37;1.37;;;0.80;;
751;SDS011;360;48.764;9.164;2022-11-20T09:01:04;1.00;;;0.83;;
751;SDS011;360;48.764;9.164;2022-11-20T09:03:31;2.33;;;1.33;;
751;SDS011;360;48.764;9.164;2022-11-20T09:05:59;1.03;;;0.70;;
751;SDS011;360;48.764;9.164;2022-11-20T09:08:26;1.40;;;0.80;;
751;SDS011;360;48.764;9.164;2022-11-20T09:10:54;0.80;;;0.67;;
751;SDS011;360;48.764;9.164;2022-11-20T09:13:23;1.33;;;0.83;;
751;SDS011;360;48.764;9.164;2022-11-20T09:15:52;1.40;;;0.90;;
751;SDS011;360;48.764;9.164;2022-11-20T09:18:19;1.50;;;0.77;;
751;SDS011;360;48.764;9.164;2022-11-20T09:20:46;1.40;;;0.80;;
751;SDS011;360;48.764;9.164;2022-11-20T09:23:14;1.73;;;0.90;;
751;SDS011;360;48.764;9.164;2022-11-20T09:25:41;1.00;;;0.70;;
751;SDS011;360;48.764;9.164;2022-11-20T09:28:08;1.00;;;0.70;;
751;SDS011;360;48.764;9.164;2022-11-20T09:30:36;1.07;;;0.80;;
751;SDS011;360;48.764;9.164;2022-11-20T09:33:04;0.80;;;0.50;;
751;SDS011;360;48.764;9.164;2022-11-20T09:35:31;1.03;;;0.87;;
751;SDS011;360;48.764;9.164;2022-11-20T09:38:03;1.10;;;0.80;;
751;SDS011;360;48.764;9.164;2022-11-20T09:40:30;1.03;;;0.70;;
751;SDS011;360;48.764;9.164;2022-11-20T09:42:58;0.77;;;0.53;;
751;SDS011;360;48.764;9.164;2022-11-20T09:45:30;1.20;;;0.80;;
751;SDS011;360;48.764;9.164;2022-11-20T09:48:17;1.33;;;0.70;;
751;SDS011;360;48.764;9.164;2022-11-20T09:50:45;1.27;;;0.60;;
751;SDS011;360;48.764;9.164;2022-11-20T09:53:16;1.17;;;0.70;;
751;SDS011;360;48.764;9.164;2022-11-20T09:55:47;1.43;;;1.33;;
751;SDS011;360;48.764;9.164;2022-11-20T09:58:15;0.70;;;0.50;;
751;SDS011;360;48.764;9.164;2022-11-20T10:00:45;1.33;;;0.87;;
751;SDS011;360;48.764;9.164;2022-11-20T10:03:13;1.40;;;0.77;;
751;SDS011;360;48.764;9.164;2022-11-20T10:05:43;0.90;;;0.57;;
751;SDS011;360;48.764;9.164;2022-11-20T10:08:13;1.20;;;0.73;;
751;SDS011;360;48.764;9.164;2022-11-20T10:10:43;0.93;;;0.60;;
751;SDS011;360;48.764;9.164;2022-11-20T10:13:17;0.90;;;0.63;;
751;SDS011;360;48.764;9.164;2022-11-20T10:15:51;0.80;;;0.60;;
751;SDS011;360;48.764;9.164;2022-11-20T10:18:26;1.37;;;1.13;;
751;SDS011;360;48.764;9.164;2022-11-20T10:21:00;0.80;;;0.60;;
751;SDS011;360;48.764;9.164;2022-11-20T10:23:35;1.33;;;0.87;;
751;SDS011;360;48.764;9.164;2022-11-20T10:26:12;1.00;;;0.70;;
751;SDS011;360;48.764;9.164;2022-11-20T10:28:46;0.77;;;0.53;;
751;SDS011;360;48.764;9.164;2022-11-20T10:31:17;0.90;;;0.67;;
751;SDS011;360;48.764;9.164;2022-11-20T10:33:49;2.30;;;1.03;;
751;SDS011;360;48.764;9.164;2022-11-20T10:36:21;0.70;;;0.50;;
751;SDS011;360;48.764;9.164;2022-11-20T10:38:49;0.80;;;0.60;;
751;SDS011;360;48.764;9.164;2022-11-20T10:41:20;1.77;;;0.73;;
751;SDS011;360;48.764;9.164;2022-11-20T10:43:52;1.00;;;0.60;;
751;SDS011;360;48.764;9.164;2022-11-20T10:46:21;1.37;;;0.67;;
751;SDS011;360;48.764;9.164;2022-11-20T10:48:48;0.77;;;0.50;;
751;SDS011;360;48.764;9.164;2022-11-20T10:51:18;1.10;;;0.70;;
751;SDS011;360;48.764;9.164;2022-11-20T10:53:54;0.90;;;0.67;;
751;SDS011;360;48.764;9.164;2022-11-20T10:56:24;1.07;;;0.73;;
751;SDS011;360;48.764;9.164;2022-11-20T10:59:00;2.60;;;0.80;;
751;SDS011;360;48.764;9.164;2022-11-20T11:01:29;4.00;;;0.90;;
751;SDS011;360;48.764;9.164;2022-11-20T11:03:56;0.80;;;0.60;;
751;SDS011;360;48.764;9.164;2022-11-20T11:06:25;0.97;;;0.70;;
751;SDS011;360;48.764;9.164;2022-11-20T11:08:58;0.90;;;0.60;;
751;SDS011;360;48.764;9.164;2022-11-20T11:11:30;1.20;;;0.60;;
751;SDS011;360;48.764;9.164;2022-11-20T11:14:04;1.97;;;1.17;;
751;SDS011;360;48.764;9.164;2022-11-20T11:16:31;1.10;;;0.63;;
751;SDS011;360;48.764;9.164;2022-11-20T11:19:05;1.00;;;0.63;;
751;SDS011;360;48.764;9.164;2022-11-20T11:21:33;1.17;;;0.70;;
751;SDS011;360;48.764;9.164;2022-11-20T11:24:03;1.30;;;0.90;;
751;SDS011;360;48.764;9.164;2022-11-20T11:26:30;1.20;;;0.80;;
751;SDS011;360;48.764;9.164;2022-11-20T11:28:58;1.10;;;0.73;;
751;SDS011;360;48.764;9.164;2022-11-20T11:31:26;0.87;;;0.67;;
751;SDS011;360;48.764;9.164;2022-11-20T11:34:03;5.13;;;1.50;;
751;SDS011;360;48.764;9.164;2022-11-20T11:36:31;2.20;;;0.60;;
751;SDS011;360;48.764;9.164;2022-11-20T11:38:59;0.80;;;0.70;;
751;SDS011;360;48.764;9.164;2022-11-20T11:41:30;1.00;;;0.80;;
751;SDS011;360;48.764;9.164;2022-11-20T11:44:01;1.47;;;1.33;;
751;SDS011;360;48.764;9.164;2022-11-20T11:46:59;2.03;;;0.93;;
751;SDS011;360;48.764;9.164;2022-11-20T11:49:26;1.50;;;1.10;;
751;SDS011;360;48.764;9.164;2022-11-20T11:51:57;1.67;;;0.80;;
751;SDS011;360;48.764;9.164;2022-11-20T11:54:32;1.70;;;0.93;;
751;SDS011;360;48.764;9.164;2022-11-20T11:57:05;0.90;;;0.80;;
751;SDS011;360;48.764;9.164;2022-11-20T11:59:41;1.27;;;0.87;;
751;SDS011;360;48.764;9.164;2022-11-20T12:02:25;1.13;;;0.67;;
751;SDS011;360;48.764;9.164;2022-11-20T12:04:59;0.90;;;0.70;;
751;SDS011;360;48.764;9.164;2022-11-20T12:07:34;1.20;;;0.60;;
751;SDS011;360;48.764;9.164;2022-11-20T12:10:07;2.10;;;1.00;;
751;SDS011;360;48.764;9.164;2022-11-20T12:12:44;1.23;;;0.77;;
751;SDS011;360;48.764;9.164;2022-11-20T12:15:16;0.90;;;0.77;;
751;SDS011;360;48.764;9.164;2022-11-20T12:17:52;1.00;;;0.83;;
751;SDS011;360;48.764;9.164;2022-11-20T12:20:18;1.43;;;1.30;;
751;SDS011;360;48.764;9.164;2022-11-20T12:22:48;0.90;;;0.77;;
751;SDS011;360;48.764;9.164;2022-11-20T12:25:22;1.90;;;0.97;;
751;SDS011;360;48.764;9.164;2022-11-20T12:30:54;1.47;;;0.73;;
751;SDS011;360;48.764;9.164;2022-11-20T12:33:47;1.00;;;0.77;;
751;SDS011;360;48.764;9.164;2022-11-20T12:36:28;1.00;;;0.60;;
751;SDS011;360;48.764;9.164;2022-11-20T12:39:09;2.17;;;0.90;;
751;SDS011;360;48.764;9.164;2022-11-20T12:42:10;0.73;;;0.60;;
751;SDS011;360;48.764;9.164;2022-11-20T12:45:17;0.83;;;0.70;;
751;SDS011;360;48.764;9.164;2022-11-20T12:51:48;0.93;;;0.60;;
751;SDS011;360;48.764;9.164;2022-11-20T12:54:31;4.30;;;1.27;;
751;SDS011;360;48.764;9.164;2022-11-20T12:57:15;1.73;;;1.00;;
751;SDS011;360;48.764;9.164;2022-11-20T12:59:51;1.20;;;0.50;;
751;SDS011;360;48.764;9.164;2022-11-20T13:02:44;2.40;;;0.90;;
751;SDS011;360;48.764;9.164;2022-11-20T13:05:31;1.23;;;0.70;;
751;SDS011;360;48.764;9.164;2022-11-20T13:08:08;0.63;;;0.50;;
751;SDS011;360;48.764;9.164;2022-11-20T13:10:38;2.03;;;0.80;;
751;SDS011;360;48.764;9.164;2022-11-20T13:13:08;1.90;;;0.83;;
751;SDS011;360;48.764;9.164;2022-11-20T13:15:48;1.17;;;0.80;;
751;SDS011;360;48.764;9.164;2022-11-20T13:18:19;2.50;;;0.90;;
751;SDS011;360;48.764;9.164;2022-11-20T13:20:46;1.43;;;0.90;;
751;SDS011;360;48.764;9.164;2022-11-20T13:23:22;1.67;;;0.83;;
751;SDS011;360;48.764;9.164;2022-11-20T13:25:50;0.87;;;0.60;;
751;SDS011;360;48.764;9.164;2022-11-20T13:28:26;0.70;;;0.40;;
751;SDS011;360;48.764;9.164;2022-11-20T13:30:55;1.00;;;0.60;;
751;SDS011;360;48.764;9.164;2022-11-20T13:33:27;1.67;;;0.70;;
751;SDS011;360;48.764;9.164;2022-11-20T13:35:58;1.00;;;0.60;;
751;SDS011;360;48.764;9.164;2022-11-20T13:38:25;2.70;;;0.50;;
751;SDS011;360;48.764;9.164;2022-11-20T13:40:53;1.37;;;0.90;;
751;SDS011;360;48.764;9.164;2022-11-20T13:43:33;1.30;;;0.57;;
751;SDS011;360;48.764;9.164;2022-11-20T13:46:02;0.70;;;0.50;;
751;SDS011;360;48.764;9.164;2022-11-20T13:48:32;0.90;;;0.63;;
751;SDS011;360;48.764;9.164;2022-11-20T13:51:03;1.63;;;0.60;;
751;SDS011;360;48.764;9.164;2022-11-20T13:53:34;0.80;;;0.57;;
751;SDS011;360;48.764;9.164;2022-11-20T13:56:05;1.17;;;0.60;;
751;SDS011;360;48.764;9.164;2022-11-20T13:58:46;0.67;;;0.47;;
751;SDS011;360;48.764;9.164;2022-11-20T14:01:19;1.83;;;0.80;;
751;SDS011;360;48.764;9.164;2022-11-20T14:03:49;2.80;;;1.47;;
751;SDS011;360;48.764;9.164;2022-11-20T14:06:20;0.97;;;0.60;;
751;SDS011;360;48.764;9.164;2022-11-20T14:08:49;1.00;;;0.60;;
751;SDS011;360;48.764;9.164;2022-11-20T14:11:17;0.80;;;0.60;;
751;SDS011;360;48.764;9.164;2022-11-20T14:13:55;1.87;;;1.20;;
751;SDS011;360;48.764;9.164;2022-11-20T14:16:22;0.90;;;0.80;;
751;SDS011;360;48.764;9.164;2022-11-20T14:18:51;0.83;;;0.67;;
751;SDS011;360;48.764;9.164;2022-11-20T14:21:22;1.73;;;1.37;;
751;SDS011;360;48.764;9.164;2022-11-20T14:23:51;1.30;;;1.10;;
751;SDS011;360;48.764;9.164;2022-11-20T14:26:19;1.47;;;0.80;;
751;SDS011;360;48.764;9.164;2022-11-20T14:28:47;1.60;;;0.60;;
751;SDS011;360;48.764;9.164;2022-11-20T14:31:16;2.60;;;1.63;;
751;SDS011;360;48.764;9.164;2022-11-20T14:33:45;1.03;;;0.70;;
751;SDS011;360;48.764;9.164;2022-11-20T14:36:17;1.10;;;0.80;;
751;SDS011;360;48.764;9.164;2022-11-20T14:38:45;0.87;;;0.77;;
751;SDS011;360;48.764;9.164;2022-11-20T14:41:16;1.70;;;1.03;;
751;SDS011;360;48.764;9.164;2022-11-20T14:43:45;2.10;;;0.63;;
751;SDS011;360;48.764;9.164;2022-11-20T14:46:12;1.60;;;1.07;;
751;SDS011;360;48.764;9.164;2022-11-20T14:48:40;1.70;;;1.03;;
751;SDS011;360;48.764;9.164;2022-11-20T14:51:08;1.53;;;0.70;;
751;SDS011;360;48.764;9.164;2022-11-20T14:53:37;0.90;;;0.60;;
751;SDS011;360;48.764;9.164;2022-11-20T14:56:04;1.60;;;0.90;;
751;SDS011;360;48.764;9.164;2022-11-20T14:58:32;2.10;;;0.93;;
751;SDS011;360;48.764;9.164;2022-11-20T15:01:00;2.97;;;0.80;;
751;SDS011;360;48.764;9.164;2022-11-20T15:03:32;3.00;;;0.90;;
751;SDS011;360;48.764;9.164;2022-11-20T15:05:59;2.03;;;1.00;;
751;SDS011;360;48.764;9.164;2022-11-20T15:08:26;0.70;;;0.53;;
751;SDS011;360;48.764;9.164;2022-11-20T15:10:55;1.23;;;0.80;;
751;SDS011;360;48.764;9.164;2022-11-20T15:13:24;1.57;;;1.20;;
751;SDS011;360;48.764;9.164;2022-11-20T15:15:53;1.20;;;0.93;;
751;SDS011;360;48.764;9.164;2022-11-20T15:18:21;1.83;;;1.10;;
751;SDS011;360;48.764;9.164;2022-11-20T15:20:48;2.10;;;1.13;;
751;SDS011;360;48.764;9.164;2022-11-20T15:23:16;1.53;;;0.80;;
751;SDS011;360;48.764;9.164;2022-11-20T15:25:44;1.53;;;1.43;;
751;SDS011;360;48.764;9.164;2022-11-20T15:28:15;0.80;;;0.70;;
751;SDS011;360;48.764;9.164;2022-11-20T15:30:43;1.70;;;1.30;;
751;SDS011;360;48.764;9.164;2022-11-20T15:33:11;1.93;;;1.30;;
751;SDS011;360;48.764;9.164;2022-11-20T15:35:38;0.90;;;0.80;;
751;SDS011;360;48.764;9.164;2022-11-20T15:38:05;1.73;;;1.27;;
751;SDS011;360;48.764;9.164;2022-11-20T15:40:32;8.63;;;1.00;;
751;SDS011;360;48.764;9.164;2022-11-20T15:42:59;1.23;;;0.80;;
751;SDS011;360;48.764;9.164;2022-11-20T15:45:32;3.00;;;1.40;;
751;SDS011;360;48.764;9.164;2022-11-20T15:48:03;3.53;;;1.10;;
751;SDS011;360;48.764;9.164;2022-11-20T15:50:33;3.90;;;1.10;;
751;SDS011;360;48.764;9.164;2022-11-20T15:53:02;2.07;;;1.17;;
751;SDS011;360;48.764;9.164;2022-11-20T15:55:30;0.90;;;0.70;;
751;SDS011;360;48.764;9.164;2022-11-20T15:57:57;1.43;;;0.83;;
751;SDS011;360;48.764;9.164;2022-11-20T16:00:24;1.50;;;0.93;;
751;SDS011;360;48.764;9.164;2022-11-20T16:02:53;1.33;;;1.13;;
751;SDS011;360;48.764;9.164;2022-11-20T16:05:20;4.53;;;1.03;;